CheckWX is a tool to help pilots better visualize weather data.  It is not intended as a substitute for an official pre-flight weather briefing.

16:59:43 UTC

KGUY TAF
Guymon Municipal Airport
Guymon, Oklahoma, USA
KGUY 231120Z 2312/2412 26008KT P6SM FEW200 FM232000 29013KT P6SM SKC FM241100 32006KT P6SM SKC

Mar-23@
12:00 UTC

Mar-23 @ 12:00 UTC

Mar-23@
20:00 UTC

Mar-23 @ 20:00 UTC

KGUY 231120Z 2312/2412 26008KT P6SM FEW200
Wind
  • 260° at 8 KTS
Cloud Levels
  • Few at 20,000' AGL

Mar-23@
20:00 UTC

Mar-23 @ 20:00 UTC

Mar-24@
11:00 UTC

Mar-24 @ 11:00 UTC

FM232000 29013KT P6SM SKC

From

From Standard forecast or significant change

Wind
  • 290° at 13 KTS
Cloud Levels
  • Clear skies

Mar-24@
11:00 UTC

Mar-24 @ 11:00 UTC

Mar-24@
12:00 UTC

Mar-24 @ 12:00 UTC

FM241100 32006KT P6SM SKC

From

From Standard forecast or significant change

Wind
  • 320° at 6 KTS
Cloud Levels
  • Clear skies